Flugplatz Hameln-Pyrmont

Für EDVW sind keine METAR/TAF Berichte vorhanden.
Es werden die Flugwettermeldungen vom Flugplatz Buckeburg Airport in 37 km Entfernung angezeigt.

Bericht für ETHB

vom 23.05. um 18:20 UTC

Wind 3 kt aus 180°

Sichtweite 10 km oder mehr

aufgelockert bewölkt in 18000 ft

aufgebrochene Bewölkung in 30000 ft

Temperatur 19.0°C

Taupunkt 7.0°C

Luftfeuchtigkeit 46%

Luftdruck 1016 hPa

ETHB 231820Z 18003KT 9999 SCT180 BKN300 19/07 Q1016 BLU+BLU+

Prognose für ETHB

vom 23.05. um 16:05 UTC

Zwischen 17:00 UTC und 02:00 UTC

Wind 5 kt aus 210°

Sichtweite 10 km oder mehr

keine signifikanten Wettererscheinungen

gering bewölkt in 5000 ft

aufgelockert bewölkt in 25000 ft

TAF ETHB 231605Z 2317/2402 21005KT 9999 NSW FEW050 SCT250
Impressum